• Join FlightAware (Why Join?)
  • Login
  • US Flag 
10:10AM EDT


 

Airport Tracker/Info


-or-


 

Live Flight TrackerFlight Track Log ✈ JZA8489 ✈ 29-Apr-2013 ✈ CYQR - CYEG

Flight Track Log - Related Links

Times and Time Zones

All times are in EDT time to prevent confusion due to time zone crossing. See the JZA8489 flight status page for this flight to view local times or setup timezone preferences in your user account.

Time Position Orientation Groundspeed Altitude Reporting Facility
EDT Latitude Longitude Course Direction KTS MPH feet Rate Location/Type
08:29PM 50.4000 -104.6667 301° West 120 138 2,700  Level Winnipeg Center
08:30PM 50.3833 -104.6333 128° Southeast 150 173 3,500 900 Climbing Winnipeg Center
08:31PM 50.3333 -104.5833 147° Southeast 180 207 4,600 900 Climbing Winnipeg Center
08:32PM 50.3000 -104.6000 198° South 180 207 5,400 900 Climbing Winnipeg Center
08:33PM 50.3167 -104.6500 298° West 180 207 6,500 1,200 Climbing Winnipeg Center
08:34PM 50.3333 -104.7167 291° West 160 184 7,900 1,200 Climbing Winnipeg Center
08:35PM 50.7324 -105.0506 301° West  Level FlightAware Approximate
08:35PM 50.3667 -104.8000 302° West 170 196 9,000  Level Winnipeg Center
08:36PM 50.4000 -104.8500 316° Northwest 170 196 10,200 1,140 Climbing Winnipeg Center
08:37PM 50.4333 -104.9000 316° Northwest 170 196 11,300 1,140 Climbing Winnipeg Center
08:38PM 50.4500 -104.9667 291° West 180 207 12,500 1,140 Climbing Winnipeg Center
08:39PM 50.4833 -105.0167 316° Northwest 180 207 13,600 1,080 Climbing Winnipeg Center
08:40PM 50.5167 -105.1000 302° West 180 207 14,700 1,080 Climbing Winnipeg Center
08:41PM 50.5333 -105.1667 291° West 190 219 15,800 960 Climbing Winnipeg Center
08:42PM 50.5667 -105.2500 302° West 200 230 16,700 900 Climbing Winnipeg Center
08:43PM 50.6000 -105.3333 302° West 200 230 17,700 1,200 Climbing Winnipeg Center
08:44PM 50.6333 -105.4000 308° West 210 242 19,100 1,200 Climbing Winnipeg Center
08:45PM 50.6500 -105.4833 288° West 210 242 20,100 840 Climbing Winnipeg Center
08:46PM 50.7000 -105.5667 313° West 210 242 20,800 840 Climbing Winnipeg Center
08:47PM 50.7333 -105.6167 316° Northwest 210 242 21,800 960 Climbing Winnipeg Center
08:48PM 50.7333 -105.6500 270° West 200 230 22,400 780 Climbing Edmonton Center
08:49PM 50.7667 -105.7167 308° West 190 219 23,100 660 Climbing Edmonton Center
08:50PM 50.7833 -105.8000 288° West 190 219 23,800 420 Climbing Edmonton Center
08:51PM 50.8167 -105.8667 308° West 190 219 24,000 120 Climbing Edmonton Center
08:51PM 50.8333 -105.9333 292° West 200 230 24,000  Level Winnipeg Center
08:52PM 50.8667 -106.0167 302° West 230 265 24,000  Level Winnipeg Center
08:53PM 50.8833 -106.0667 298° West 240 276 24,000  Level Edmonton Center
08:54PM 50.9167 -106.1500 302° West 250 288 24,000  Level Edmonton Center
08:54PM 50.9333 -106.2000 298° West 250 288 24,000  Level Winnipeg Center
08:55PM 50.9833 -106.3167 304° West 260 299 24,000  Level Winnipeg Center
08:56PM 51.0000 -106.4000 288° West 260 299 24,000  Level Winnipeg Center
08:57PM 51.0500 -106.5167 304° West 260 299 24,000  Level Winnipeg Center
08:58PM 51.0833 -106.6000 303° West 260 299 24,000  Level Winnipeg Center
08:59PM 51.1167 -106.7167 295° West 260 299 24,000  Level Winnipeg Center
09:00PM 51.1500 -106.8000 303° West 260 299 24,000  Level Winnipeg Center
09:01PM 51.2000 -106.9000 309° West 260 299 24,000  Level Winnipeg Center
09:02PM 51.2167 -107.0167 283° West 250 288 24,000  Level Winnipeg Center
09:03PM 51.2667 -107.1000 314° West 260 299 24,000  Level Winnipeg Center
09:04PM 51.2833 -107.1833 288° West 260 299 24,000  Level Winnipeg Center
09:05PM 51.3333 -107.3000 304° West 260 299 24,000 -300 Level Winnipeg Center
09:06PM 51.3667 -107.4000 298° West 260 299 23,400 -840 Descending Winnipeg Center
09:07PM 51.4000 -107.5000 298° West 270 311 22,400 -720 Descending Winnipeg Center
09:08PM 51.4333 -107.6000 298° West 270 311 22,000 -240 Descending Winnipeg Center
09:09PM 51.4833 -107.7167 305° West 270 311 22,000  Level Winnipeg Center
09:10PM 51.5167 -107.8000 303° West 270 311 22,000  Level Winnipeg Center
09:11PM 51.5333 -107.9167 283° West 260 299 22,000  Level Winnipeg Center
09:12PM 51.5833 -108.0167 309° West 260 299 22,000  Level Winnipeg Center
09:13PM 51.6167 -108.1333 295° West 260 299 22,000  Level Winnipeg Center
09:14PM 51.6333 -108.1500 328° Northwest 250 288 22,000  Level Edmonton Center
09:15PM 51.6667 -108.2500 298° West 250 288 22,000  Level Edmonton Center
09:16PM 51.7000 -108.3500 298° West 250 288 22,000  Level Edmonton Center
09:16PM 51.7167 -108.4333 288° West 250 288 22,000  Level Winnipeg Center
09:17PM 51.7500 -108.5167 303° West 260 299 22,000  Level Winnipeg Center
09:18PM 51.8000 -108.6333 305° West 250 288 22,000  Level Winnipeg Center
09:19PM 51.8167 -108.7333 285° West 250 288 22,000  Level Winnipeg Center
09:20PM 51.8667 -108.8167 314° West 250 288 22,000  Level Winnipeg Center
09:21PM 51.8833 -108.9167 285° West 250 288 22,000  Level Winnipeg Center
09:22PM 51.9167 -109.0333 295° West 250 288 22,000  Level Winnipeg Center
09:23PM 51.9500 -109.1167 303° West 250 288 22,000  Level Winnipeg Center
09:24PM 51.9667 -109.1667 298° West 250 288 22,000  Level Edmonton Center
09:25PM 52.0000 -109.2500 303° West 240 276 22,000 -540 Level Edmonton Center
09:26PM 52.0333 -109.3667 295° West 250 288 21,000 -1,020 Descending Edmonton Center
09:26PM 52.0500 -109.4167 298° West 260 299 20,700 -780 Descending Winnipeg Center
09:27PM 52.0833 -109.5167 299° West 270 311 20,000 -360 Descending Winnipeg Center
09:28PM 52.1167 -109.6333 295° West 260 299 20,000  Level Winnipeg Center
09:29PM 52.1333 -109.6667 309° West 270 311 20,000  Level Edmonton Center
09:30PM 52.1667 -109.7833 295° West 260 299 20,000  Level Edmonton Center
09:31PM 52.2000 -109.8667 303° West 260 299 20,000  Level Edmonton Center
09:32PM 52.2333 -109.9833 295° West 270 311 20,000  Level Edmonton Center
09:33PM 52.2667 -110.1000 295° West 270 311 20,000  Level Edmonton Center
09:33PM 52.2833 -110.1500 299° West 270 311 20,000  Level Winnipeg Center
09:34PM 52.3333 -110.2833 302° West 270 311 20,000  Level Winnipeg Center
09:35PM 52.3667 -110.4000 295° West 270 311 20,000  Level Winnipeg Center
09:36PM 52.3667 -110.4167 270° West 270 311 20,000  Level Edmonton Center
09:37PM 52.4000 -110.5333 295° West 270 311 20,000  Level Edmonton Center
09:38PM 52.4500 -110.6500 305° West 270 311 20,000  Level Edmonton Center
09:38PM 52.4667 -110.7000 299° West 270 311 20,000  Level Winnipeg Center
09:39PM 52.5000 -110.8333 292° West 270 311 20,000  Level Winnipeg Center
09:40PM 52.5333 -110.9333 299° West 270 311 20,000  Level Winnipeg Center
09:41PM 52.5500 -110.9667 309° West 270 311 20,000  Level Edmonton Center
09:42PM 52.5833 -111.0833 295° West 270 311 20,000  Level Edmonton Center
09:43PM 52.6167 -111.2000 295° West 270 311 20,000  Level Edmonton Center
09:44PM 52.6500 -111.3167 295° West 270 311 20,000  Level Edmonton Center
09:45PM 52.6833 -111.4167 299° West 270 311 20,000  Level Edmonton Center
09:46PM 52.7167 -111.5333 295° West 270 311 20,000  Level Edmonton Center
09:47PM 52.7500 -111.6500 295° West 270 311 20,000  Level Edmonton Center
09:48PM 52.7667 -111.7667 283° West 270 311 20,000  Level Edmonton Center
09:49PM 52.8167 -111.8833 305° West 270 311 20,000  Level Edmonton Center
09:50PM 52.8500 -112.0000 295° West 270 311 20,000 -420 Level Edmonton Center
09:51PM 52.8667 -112.0833 288° West 270 311 19,200 -1,200 Descending Edmonton Center
09:52PM 52.9167 -112.2000 305° West 280 322 17,600 -1,560 Descending Edmonton Center
09:53PM 52.9500 -112.3167 295° West 280 322 16,100 -1,500 Descending Edmonton Center
09:54PM 52.9833 -112.4500 293° West 280 322 14,600 -1,500 Descending Edmonton Center
09:55PM 53.0167 -112.5667 295° West 280 322 13,100 -1,500 Descending Edmonton Center
09:56PM 53.0167 -112.6833 270° West 270 311 11,600 -1,560 Descending Edmonton Center
09:57PM 53.0500 -112.8000 295° West 240 276 10,000 -1,500 Descending Edmonton Center
09:58PM 53.0500 -112.9167 270° West 260 299 8,600 -1,500 Descending Edmonton Center
09:59PM 53.0833 -113.0333 295° West 230 265 7,100 -1,500 Descending Edmonton Center
10:00PM 53.1000 -113.1167 288° West 220 253 5,600 -1,080 Descending Edmonton Center
10:01PM 53.1000 -113.2333 270° West 210 242 5,000 -360 Descending Edmonton Center
10:02PM 53.1167 -113.3167 288° West 190 219 5,000  Level Edmonton Center
10:03PM 53.1500 -113.3833 310° West 160 184 5,000  Level Edmonton Center
10:04PM 53.1500 -113.4167 270° West 120 138 5,000 -240 Level Edmonton Center
10:05PM 53.1833 -113.4667 318° Northwest 100 115 4,600 -540 Descending Edmonton Center
10:06PM 53.2000 -113.5000 310° West 100 115 4,000 -600 Descending Edmonton Center
10:07PM 53.2333 -113.5333 329° Northwest 110 127 3,400 -600 Descending Edmonton Center